Stanford, Minnesota
Current Conditions -  °F | °C
As of 5:15 AM on Friday 28 Nov 2014 (Local Time) from KCBG Reporting Station
Light Snow Light Snow  
Wind Chill: 12°   Ceiling: 6500
Heat Index: 12°   Visibility: 7mi
Dew Point:   Wind: 3mph
Humidity: 67%   Direction: 110°ESE
Pressure: 30.05"   Gusts: NA
Location:  45.6667°N, 93.2669°W
Report Text: KCBG 281115Z AUTO 11003KT 7SM -SN SCT014 BKN065 OVC075 M11/M16 A3005 RMK AO2
Loading
Personal Weather Stations






























Interactive Weather Map New forecast layout! Learn more

10-Day Weather Forecast

Advertisements
Track Severe Weather on mobile